Time;durP1;ratioP1;P1;durP2;ratioP2;P2;SDS_P1;SDS_P2;PMS_P1;PMS_P2;Temp;Humidity;BMP_temperature;BMP_pressure;BME280_temperature;BME280_humidity;BME280_pressure;Samples;Min_cycle;Max_cycle;Signal;HPM_P1;HPM_P2
2023/02/18 00:02:04;;;;;;;2.10;0.90;;;;;;;11.62;100.00;99639.16;4944947;28;20031;-78
2023/02/18 00:04:30;;;;;;;2.90;0.95;;;;;;;11.51;100.00;99609.84;4953766;29;20024;-78
2023/02/18 00:06:55;;;;;;;0.80;0.80;;;;;;;11.56;100.00;99624.50;4937011;29;20032;-79
2023/02/18 00:09:20;;;;;;;1.77;1.10;;;;;;;11.50;100.00;99608.16;4955668;29;20793;-79
2023/02/18 00:11:45;;;;;;;1.85;0.95;;;;;;;11.66;100.00;99636.91;4960191;28;20545;-78
2023/02/18 00:14:12;;;;;;;1.52;0.80;;;;;;;11.62;100.00;99637.28;4938503;28;20032;-78
2023/02/18 00:16:38;;;;;;;3.92;0.90;;;;;;;11.33;100.00;99577.75;4926480;29;20059;-78
2023/02/18 00:19:06;;;;;;;2.08;1.15;;;;;;;11.75;100.00;99649.34;4939819;29;20147;-78
2023/02/18 00:21:33;;;;;;;1.08;0.73;;;;;;;11.75;100.00;99649.34;4941525;29;20031;-78
2023/02/18 00:23:59;;;;;;;1.67;0.80;;;;;;;11.70;100.00;99636.34;4942494;28;20035;-78
2023/02/18 00:26:24;;;;;;;3.38;0.80;;;;;;;11.76;100.00;99654.59;4935672;29;20034;-78
2023/02/18 00:28:50;;;;;;;0.95;0.80;;;;;;;11.80;100.00;99649.59;4957579;29;20027;-78
2023/02/18 00:31:21;;;;;;;1.05;0.75;;;;;;;11.67;100.00;99641.31;4956182;28;20036;-78
2023/02/18 00:33:46;;;;;;;1.58;0.82;;;;;;;11.73;100.00;99651.38;4969988;28;20147;-78
2023/02/18 00:36:14;;;;;;;2.50;1.02;;;;;;;11.73;100.00;99648.69;4924108;29;20055;-78
2023/02/18 00:38:44;;;;;;;2.45;1.02;;;;;;;11.56;100.00;99619.09;4945060;29;20086;-78
2023/02/18 00:41:10;;;;;;;2.67;1.00;;;;;;;11.56;100.00;99610.13;4942362;29;20034;-77
2023/02/18 00:43:35;;;;;;;3.08;0.90;;;;;;;11.63;100.00;99614.59;4939079;29;20031;-78
2023/02/18 00:46:01;;;;;;;2.40;1.10;;;;;;;11.62;100.00;99620.19;4940617;29;20032;-78
2023/02/18 00:48:26;;;;;;;1.60;0.80;;;;;;;11.61;100.00;99624.78;4951384;28;20054;-78
2023/02/18 00:50:52;;;;;;;1.90;1.10;;;;;;;11.60;100.00;99616.81;4932912;29;20066;-77
2023/02/18 00:53:17;;;;;;;2.13;1.02;;;;;;;11.62;100.00;99612.91;4949677;28;20050;-78
2023/02/18 00:55:46;;;;;;;1.73;0.90;;;;;;;11.78;100.00;99629.97;4962226;23;20117;-69
2023/02/18 00:58:12;;;;;;;1.33;1.05;;;;;;;11.79;100.00;99628.97;4944041;29;20032;-68
2023/02/18 01:00:38;;;;;;;2.78;1.10;;;;;;;11.75;100.00;99633.91;4945830;28;20058;-68
2023/02/18 01:03:05;;;;;;;1.88;0.90;;;;;;;11.77;100.00;99637.28;4951545;28;20171;-68
2023/02/18 01:05:30;;;;;;;1.95;1.27;;;;;;;11.78;100.00;99635.41;4949793;28;20090;-69
2023/02/18 01:07:56;;;;;;;2.05;1.10;;;;;;;11.79;100.00;99635.22;4979506;28;20061;-69
2023/02/18 01:10:21;;;;;;;2.63;1.00;;;;;;;11.77;100.00;99629.13;4944602;28;20027;-65
2023/02/18 01:12:46;;;;;;;1.80;1.15;;;;;;;11.81;100.00;99618.75;4938060;28;20123;-66
2023/02/18 01:15:14;;;;;;;1.30;1.08;;;;;;;11.80;100.00;99626.03;4923595;28;20024;-66
2023/02/18 01:17:39;;;;;;;2.72;1.00;;;;;;;11.84;100.00;99631.91;4926987;29;20085;-65
2023/02/18 01:20:06;;;;;;;2.15;0.98;;;;;;;11.80;100.00;99627.91;4940492;28;20032;-65
2023/02/18 01:22:31;;;;;;;2.53;1.10;;;;;;;11.81;100.00;99610.59;4921994;29;20030;-66
2023/02/18 01:24:56;;;;;;;3.28;1.25;;;;;;;11.82;100.00;99618.56;4939293;28;20028;-65
2023/02/18 01:27:22;;;;;;;1.80;1.17;;;;;;;11.83;100.00;99627.53;4928979;28;20086;-65
2023/02/18 01:29:47;;;;;;;2.70;1.08;;;;;;;11.88;100.00;99629.72;4926153;29;20107;-66
2023/02/18 01:32:12;;;;;;;1.42;1.00;;;;;;;11.88;100.00;99619.69;4929539;29;20387;-66
2023/02/18 01:34:38;;;;;;;2.30;1.27;;;;;;;11.87;100.00;99620.75;4929149;28;20046;-66
2023/02/18 01:37:03;;;;;;;2.92;1.08;;;;;;;11.86;100.00;99613.63;4940036;28;20031;-66
2023/02/18 01:39:28;;;;;;;2.03;1.40;;;;;;;11.85;100.00;99611.91;4910391;29;20090;-66
2023/02/18 01:41:54;;;;;;;1.95;1.48;;;;;;;11.80;100.00;99612.47;4930534;28;20028;-65
2023/02/18 01:44:23;;;;;;;1.58;1.20;;;;;;;11.80;100.00;99607.06;4920406;28;20578;-65
2023/02/18 01:46:49;;;;;;;2.28;1.30;;;;;;;11.78;100.00;99605.56;4931054;28;20486;-66
2023/02/18 01:49:19;;;;;;;2.97;1.20;;;;;;;11.80;100.00;99592.69;4928592;29;20036;-66
2023/02/18 01:51:55;;;;;;;1.98;1.38;;;;;;;11.75;100.00;99605.97;4929859;29;20035;-66
2023/02/18 01:54:30;;;;;;;2.28;1.30;;;;;;;11.74;100.00;99604.28;4926852;28;20388;-66
2023/02/18 01:57:04;;;;;;;1.98;1.33;;;;;;;11.75;100.00;99600.53;4942163;28;20028;-66
2023/02/18 01:59:35;;;;;;;1.52;1.10;;;;;;;11.76;100.00;99602.22;4954215;28;20040;-66
2023/02/18 02:02:01;;;;;;;3.58;1.67;;;;;;;11.73;100.00;99611.56;4924809;28;20107;-65
2023/02/18 02:04:28;;;;;;;1.45;1.02;;;;;;;11.74;100.00;99605.13;4927975;28;20051;-66
2023/02/18 02:06:53;;;;;;;2.75;1.38;;;;;;;11.72;100.00;99617.19;4937358;28;20487;-66
2023/02/18 02:09:22;;;;;;;2.83;1.70;;;;;;;11.73;100.00;99611.56;4924012;28;20091;-66
2023/02/18 02:12:21;;;;;;;1.48;1.08;;;;;;;11.79;100.00;99602.69;4937945;28;20127;-66
2023/02/18 02:15:05;;;;;;;1.70;1.15;;;;;;;11.80;100.00;99595.38;4917661;29;20495;-65
2023/02/18 02:17:48;;;;;;;1.55;1.10;;;;;;;11.74;100.00;99601.59;4914052;28;20483;-66
2023/02/18 02:20:40;;;;;;;2.78;1.50;;;;;;;11.75;100.00;99582.41;4939757;28;20023;-66
2023/02/18 02:23:33;;;;;;;2.17;1.60;;;;;;;11.79;100.00;99575.56;4937925;28;20038;-66
2023/02/18 02:26:43;;;;;;;2.55;1.23;;;;;;;11.78;100.00;99587.44;4931755;29;20364;-65
2023/02/18 02:29:37;;;;;;;1.70;1.30;;;;;;;11.76;100.00;99603.06;4941114;28;20036;-66
2023/02/18 02:32:25;;;;;;;2.42;1.30;;;;;;;11.65;100.00;99600.00;4940168;28;20356;-66
2023/02/18 02:35:09;;;;;;;2.00;1.40;;;;;;;11.71;100.00;99588.38;4925180;28;20038;-66
2023/02/18 02:37:46;;;;;;;2.55;1.80;;;;;;;11.70;100.00;99595.69;4944910;28;20090;-66
2023/02/18 02:40:11;;;;;;;2.60;1.73;;;;;;;11.73;100.00;99594.47;4962936;28;20034;-66
2023/02/18 02:43:02;;;;;;;2.50;1.40;;;;;;;11.72;100.00;99584.66;4929027;28;20028;-66
2023/02/18 02:46:04;;;;;;;4.57;1.55;;;;;;;11.64;100.00;99585.63;4932266;28;20490;-65
2023/02/18 02:49:01;;;;;;;1.90;1.42;;;;;;;11.64;100.00;99580.19;4942888;28;20028;-65
2023/02/18 02:51:41;;;;;;;2.17;1.30;;;;;;;11.65;100.00;99589.16;4933138;28;20043;-65
2023/02/18 02:54:23;;;;;;;2.35;1.60;;;;;;;11.57;100.00;99593.66;4934911;28;20434;-66
2023/02/18 02:56:48;;;;;;;3.70;1.38;;;;;;;11.61;100.00;99588.72;4938832;28;20486;-66
2023/02/18 02:59:19;;;;;;;2.30;1.55;;;;;;;11.57;100.00;99580.09;4915466;28;20036;-66
2023/02/18 03:02:17;;;;;;;3.67;1.65;;;;;;;11.61;100.00;99564.31;4955134;28;20028;-66
2023/02/18 03:05:14;;;;;;;1.83;1.45;;;;;;;11.58;100.00;99565.53;4921219;28;20024;-66
2023/02/18 03:07:48;;;;;;;2.38;1.50;;;;;;;11.58;100.00;99562.84;4945187;29;20689;-65
2023/02/18 03:10:43;;;;;;;3.33;1.42;;;;;;;11.59;100.00;99564.50;4923876;28;20454;-65
2023/02/18 03:13:20;;;;;;;2.85;1.40;;;;;;;11.56;100.00;99559.47;4929588;29;20028;-65
2023/02/18 03:15:54;;;;;;;2.47;1.30;;;;;;;11.64;100.00;99550.38;4940512;28;20082;-66
2023/02/18 03:18:31;;;;;;;3.63;1.58;;;;;;;11.68;100.00;99545.41;4931443;29;20044;-65
2023/02/18 03:21:10;;;;;;;5.30;1.77;;;;;;;11.68;100.00;99539.97;4941870;28;20032;-65
2023/02/18 03:23:48;;;;;;;2.75;1.45;;;;;;;11.67;100.00;99547.28;4928778;28;20027;-65
2023/02/18 03:26:17;;;;;;;2.47;1.80;;;;;;;11.70;100.00;99543.34;4929149;29;20028;-66
2023/02/18 03:28:44;;;;;;;3.78;1.77;;;;;;;11.72;100.00;99542.13;4928925;28;20031;-66
2023/02/18 03:31:14;;;;;;;3.13;1.67;;;;;;;11.68;100.00;99534.56;4942608;29;20032;-66
2023/02/18 03:33:45;;;;;;;2.45;1.85;;;;;;;11.75;100.00;99546.31;4924310;28;20054;-67
2023/02/18 03:36:12;;;;;;;2.42;1.45;;;;;;;11.70;100.00;99546.06;4943181;29;20368;-66
2023/02/18 03:38:57;;;;;;;2.05;1.50;;;;;;;11.75;100.00;99544.44;4922082;28;20036;-66
2023/02/18 03:41:23;;;;;;;2.47;1.70;;;;;;;11.73;100.00;99559.22;4927151;28;20031;-65
2023/02/18 03:43:55;;;;;;;2.00;1.40;;;;;;;11.66;100.00;99559.16;4933371;28;20258;-66
2023/02/18 03:46:20;;;;;;;4.20;1.73;;;;;;;11.64;100.00;99555.81;4922823;29;20028;-65
2023/02/18 03:48:46;;;;;;;2.15;1.65;;;;;;;11.57;100.00;99553.00;4922184;28;20096;-66
2023/02/18 03:51:11;;;;;;;3.10;1.75;;;;;;;11.47;100.00;99552.47;4918792;28;20024;-65
2023/02/18 03:53:37;;;;;;;2.20;1.90;;;;;;;11.41;100.00;99551.38;4919070;29;20024;-66
2023/02/18 03:56:02;;;;;;;5.25;2.42;;;;;;;11.34;100.00;99547.75;4922389;29;20107;-66
2023/02/18 03:58:28;;;;;;;2.38;1.50;;;;;;;11.29;100.00;99554.75;4921420;28;20028;-65
2023/02/18 04:00:53;;;;;;;2.35;1.73;;;;;;;11.16;100.00;99559.00;4947029;28;20480;-66
2023/02/18 04:03:18;;;;;;;2.60;1.95;;;;;;;11.13;100.00;99553.09;4921204;28;20447;-66
2023/02/18 04:05:44;;;;;;;2.35;1.85;;;;;;;11.12;100.00;99546.00;4941134;28;20040;-66
2023/02/18 04:08:09;;;;;;;4.28;1.75;;;;;;;11.09;100.00;99549.94;4942510;28;20083;-66
2023/02/18 04:10:34;;;;;;;3.28;1.80;;;;;;;11.06;100.00;99554.91;4945282;29;20052;-66
2023/02/18 04:13:00;;;;;;;2.53;2.00;;;;;;;11.02;100.00;99551.72;4926779;29;20028;-66
2023/02/18 04:15:25;;;;;;;4.45;2.22;;;;;;;11.00;100.00;99539.38;4953117;29;20154;-65
2023/02/18 04:17:51;;;;;;;2.90;1.80;;;;;;;10.95;100.00;99542.66;4950191;28;20559;-65
2023/02/18 04:20:17;;;;;;;4.22;2.20;;;;;;;10.84;100.00;99543.13;4946799;28;20040;-66
2023/02/18 04:22:42;;;;;;;2.78;1.98;;;;;;;10.79;100.00;99548.25;4946111;29;20077;-66
2023/02/18 04:25:07;;;;;;;3.33;2.10;;;;;;;10.67;100.00;99548.72;4941219;29;20026;-66
2023/02/18 04:27:33;;;;;;;3.83;2.40;;;;;;;10.63;100.00;99554.69;4945733;28;20027;-66
2023/02/18 04:29:58;;;;;;;2.70;2.00;;;;;;;10.70;100.00;99553.75;4931524;28;20032;-66
2023/02/18 04:32:24;;;;;;;3.28;2.15;;;;;;;10.71;100.00;99543.78;4945211;28;20031;-66
2023/02/18 04:34:49;;;;;;;4.28;2.22;;;;;;;10.70;100.00;99547.50;4918886;29;20032;-66
2023/02/18 04:37:15;;;;;;;3.10;2.05;;;;;;;10.66;100.00;99535.38;4919235;29;20111;-66
2023/02/18 04:39:40;;;;;;;3.08;2.00;;;;;;;10.60;100.00;99547.78;4924159;29;20028;-66
2023/02/18 04:42:07;;;;;;;3.33;2.13;;;;;;;10.62;100.00;99536.78;4945247;28;20106;-66
2023/02/18 04:44:34;;;;;;;2.83;1.70;;;;;;;10.68;100.00;99539.56;4948060;28;20038;-66
2023/02/18 04:47:00;;;;;;;2.70;2.03;;;;;;;10.74;100.00;99536.13;4931963;29;20028;-66
2023/02/18 04:49:26;;;;;;;3.10;2.30;;;;;;;10.78;100.00;99541.19;4939516;28;20026;-66
2023/02/18 04:51:51;;;;;;;3.15;2.10;;;;;;;10.81;100.00;99549.75;4947668;29;20034;-66
2023/02/18 04:54:16;;;;;;;2.92;1.95;;;;;;;10.86;100.00;99546.50;4931728;29;20032;-66
2023/02/18 04:56:42;;;;;;;2.97;1.98;;;;;;;10.88;100.00;99541.75;4941704;28;20036;-66
2023/02/18 04:59:07;;;;;;;2.63;1.77;;;;;;;10.92;100.00;99556.56;4935542;28;20038;-66
2023/02/18 05:01:33;;;;;;;2.85;2.00;;;;;;;10.95;100.00;99562.47;4945170;28;20055;-67
2023/02/18 05:03:58;;;;;;;2.78;1.75;;;;;;;11.01;100.00;99560.88;4940128;28;20472;-71
2023/02/18 05:06:30;;;;;;;3.00;2.08;;;;;;;11.04;100.00;99565.91;4935982;29;20074;-70
2023/02/18 05:08:55;;;;;;;2.70;1.70;;;;;;;11.06;100.00;99563.84;4930033;28;20099;-70
2023/02/18 05:11:20;;;;;;;3.00;1.80;;;;;;;11.12;100.00;99554.13;4957024;28;20039;-70
2023/02/18 05:13:46;;;;;;;2.38;1.63;;;;;;;11.16;100.00;99553.56;4940306;29;20023;-70
2023/02/18 05:16:12;;;;;;;2.88;1.70;;;;;;;11.16;100.00;99552.72;4938688;29;20023;-70
2023/02/18 05:18:38;;;;;;;3.75;1.83;;;;;;;11.23;100.00;99544.69;4930271;29;20423;-70
2023/02/18 05:21:04;;;;;;;2.95;2.00;;;;;;;11.25;100.00;99531.78;4921198;28;20386;-70
2023/02/18 05:23:29;;;;;;;3.92;1.48;;;;;;;11.18;100.00;99540.66;4922387;28;20036;-70
2023/02/18 05:25:54;;;;;;;1.98;1.45;;;;;;;11.19;100.00;99527.97;4919804;29;20029;-70
2023/02/18 05:28:20;;;;;;;2.92;1.67;;;;;;;11.19;100.00;99533.41;4940972;28;20047;-70
2023/02/18 05:30:45;;;;;;;2.45;1.75;;;;;;;11.21;100.00;99528.59;4936824;28;20499;-70
2023/02/18 05:33:12;;;;;;;3.20;1.83;;;;;;;11.15;100.00;99530.22;4964784;28;20034;-70
2023/02/18 05:35:37;;;;;;;2.88;1.70;;;;;;;11.25;100.00;99539.91;4952822;28;20561;-70
2023/02/18 05:38:02;;;;;;;3.53;1.73;;;;;;;11.26;100.00;99530.75;4948451;28;20032;-71
2023/02/18 05:40:28;;;;;;;2.17;1.67;;;;;;;11.23;100.00;99533.84;4943336;28;20073;-71
2023/02/18 05:42:53;;;;;;;3.50;1.83;;;;;;;11.22;100.00;99534.88;4939138;29;20383;-71
2023/02/18 05:45:19;;;;;;;1.85;1.30;;;;;;;11.17;100.00;99517.31;4943609;28;20028;-71
2023/02/18 05:47:44;;;;;;;3.25;1.58;;;;;;;11.21;100.00;99530.47;4945703;28;20028;-71
2023/02/18 05:50:10;;;;;;;3.13;1.77;;;;;;;11.17;100.00;99527.31;4932384;29;20126;-71
2023/02/18 05:52:35;;;;;;;3.25;1.90;;;;;;;11.16;100.00;99537.31;4943676;28;20027;-70
2023/02/18 05:55:01;;;;;;;3.53;1.90;;;;;;;11.21;100.00;99527.78;4934950;28;20038;-71
2023/02/18 05:57:26;;;;;;;2.10;1.40;;;;;;;11.24;100.00;99516.56;5007475;28;20601;-71
2023/02/18 05:59:52;;;;;;;2.30;1.52;;;;;;;11.27;100.00;99524.31;4935842;28;20043;-71
2023/02/18 06:02:18;;;;;;;2.53;1.63;;;;;;;11.36;100.00;99523.16;4943732;29;20082;-70
2023/02/18 06:04:43;;;;;;;2.63;1.63;;;;;;;11.27;100.00;99508.91;4927708;28;20039;-71
2023/02/18 06:07:08;;;;;;;2.50;1.40;;;;;;;11.27;100.00;99527.03;4931276;28;20023;-71
2023/02/18 06:09:36;;;;;;;2.33;1.50;;;;;;;11.29;100.00;99533.94;4916981;29;20047;-71
2023/02/18 06:12:02;;;;;;;2.05;1.50;;;;;;;11.26;100.00;99528.88;4940019;28;20024;-70
2023/02/18 06:14:27;;;;;;;2.40;1.30;;;;;;;11.27;100.00;99544.13;4920948;28;20024;-71
2023/02/18 06:16:52;;;;;;;2.50;1.67;;;;;;;11.29;100.00;99535.78;4922636;28;20131;-70
2023/02/18 06:19:18;;;;;;;2.35;1.63;;;;;;;11.22;100.00;99532.19;4924909;28;20028;-70
2023/02/18 06:21:43;;;;;;;3.08;1.73;;;;;;;11.15;100.00;99529.38;4928811;28;20471;-71
2023/02/18 06:24:09;;;;;;;2.10;1.35;;;;;;;11.10;100.00;99531.81;4941918;28;20379;-71
2023/02/18 06:26:34;;;;;;;2.50;1.70;;;;;;;11.04;100.00;99538.00;4942581;28;20083;-71
2023/02/18 06:29:00;;;;;;;3.65;2.20;;;;;;;10.89;100.00;99540.69;4938046;28;20020;-71
2023/02/18 06:31:25;;;;;;;6.07;2.55;;;;;;;10.79;100.00;99537.44;4921852;28;20026;-71
2023/02/18 06:34:01;;;;;;;8.70;4.75;;;;;;;10.70;100.00;99537.53;4923376;28;20119;-71
2023/02/18 06:36:26;;;;;;;5.65;2.55;;;;;;;10.58;100.00;99530.88;4935857;28;20032;-70
2023/02/18 06:38:55;;;;;;;4.40;2.38;;;;;;;10.46;100.00;99530.50;4928932;29;20042;-72
2023/02/18 06:41:20;;;;;;;8.07;1.88;;;;;;;10.37;100.00;99522.66;4952376;23;20636;-76
2023/02/18 06:43:45;;;;;;;3.95;1.85;;;;;;;10.35;100.00;99525.56;4926314;28;20098;-76
2023/02/18 06:46:10;;;;;;;4.07;2.63;;;;;;;10.34;100.00;99528.44;4927700;29;20016;-76
2023/02/18 06:48:37;;;;;;;3.08;2.20;;;;;;;10.29;100.00;99505.47;4933875;28;20055;-76
2023/02/18 06:51:03;;;;;;;3.65;2.40;;;;;;;10.36;100.00;99519.13;4948710;28;20016;-77
2023/02/18 06:53:30;;;;;;;6.78;3.50;;;;;;;10.37;100.00;99519.94;4927420;29;20128;-76
2023/02/18 06:55:56;;;;;;;7.10;3.42;;;;;;;10.37;100.00;99531.59;4947727;28;20013;-76
2023/02/18 06:58:22;;;;;;;6.88;2.55;;;;;;;10.36;100.00;99515.56;4930225;29;20016;-76
2023/02/18 07:00:47;;;;;;;6.15;2.20;;;;;;;10.43;100.00;99525.47;4947320;29;20067;-76
2023/02/18 07:03:13;;;;;;;2.92;1.60;;;;;;;10.57;100.00;99531.09;4933120;29;20054;-75
2023/02/18 07:05:39;;;;;;;1.98;1.55;;;;;;;10.48;100.00;99525.75;4932128;29;20024;-76
2023/02/18 07:08:04;;;;;;;2.20;1.23;;;;;;;10.36;100.00;99507.47;4929711;28;20027;-76
2023/02/18 07:10:30;;;;;;;2.40;1.48;;;;;;;10.37;100.00;99518.09;4946829;28;20055;-76
2023/02/18 07:12:55;;;;;;;1.58;1.30;;;;;;;10.34;100.00;99520.31;4932757;29;20035;-76
2023/02/18 07:15:23;;;;;;;2.70;1.63;;;;;;;10.38;100.00;99527.06;4929125;29;20035;-76
2023/02/18 07:17:52;;;;;;;2.55;1.50;;;;;;;10.33;100.00;99497.84;4913827;28;20029;-75
2023/02/18 07:20:19;;;;;;;5.07;1.60;;;;;;;10.40;100.00;99515.03;4914874;29;20560;-75
2023/02/18 07:22:45;;;;;;;2.35;1.45;;;;;;;10.47;100.00;99515.94;4921438;29;20051;-75
2023/02/18 07:25:10;;;;;;;1.58;1.30;;;;;;;10.63;100.00;99516.81;4914945;29;20162;-75
2023/02/18 07:27:35;;;;;;;3.03;1.30;;;;;;;10.59;100.00;99502.81;4958857;28;20013;-76
2023/02/18 07:30:01;;;;;;;2.40;1.48;;;;;;;10.50;100.00;99493.09;4910260;28;20099;-75
2023/02/18 07:32:26;;;;;;;2.53;1.70;;;;;;;10.53;100.00;99501.69;4912230;29;20035;-75
2023/02/18 07:34:52;;;;;;;3.38;1.42;;;;;;;10.48;100.00;99497.88;4947198;28;20030;-76
2023/02/18 07:37:18;;;;;;;2.70;1.75;;;;;;;10.38;100.00;99489.19;4913899;28;20035;-75
2023/02/18 07:39:44;;;;;;;1.67;1.33;;;;;;;10.49;100.00;99502.25;4923647;29;20655;-75
2023/02/18 07:42:10;;;;;;;3.05;1.50;;;;;;;10.55;100.00;99501.50;4912677;28;20024;-75
2023/02/18 07:44:36;;;;;;;1.92;1.50;;;;;;;10.54;100.00;99497.13;4912827;29;20024;-75
2023/02/18 07:47:03;;;;;;;4.03;1.95;;;;;;;10.57;100.00;99493.22;4929518;29;20050;-76
2023/02/18 07:49:29;;;;;;;2.08;1.52;;;;;;;10.59;100.00;99491.16;4913938;28;20024;-75
2023/02/18 07:51:54;;;;;;;4.28;1.73;;;;;;;10.66;100.00;99487.53;4911149;28;20040;-75
2023/02/18 07:54:19;;;;;;;2.85;1.58;;;;;;;10.73;100.00;99498.44;4917551;29;20046;-75
2023/02/18 07:56:45;;;;;;;2.05;1.35;;;;;;;10.78;100.00;99495.16;4917299;29;20123;-76
2023/02/18 07:59:12;;;;;;;2.35;1.33;;;;;;;10.77;100.00;99482.63;4927080;29;20024;-76
2023/02/18 08:01:38;;;;;;;2.13;1.45;;;;;;;10.84;100.00;99489.81;4914974;28;20039;-76
2023/02/18 08:04:03;;;;;;;2.08;1.42;;;;;;;10.79;100.00;99476.00;4931163;28;20032;-76
2023/02/18 08:06:33;;;;;;;2.83;1.40;;;;;;;10.72;100.00;99477.81;4926158;28;20025;-76
2023/02/18 08:08:59;;;;;;;1.83;1.20;;;;;;;10.75;100.00;99472.84;4920531;28;20028;-76
2023/02/18 08:11:24;;;;;;;3.78;1.33;;;;;;;10.82;100.00;99482.91;4931215;28;20028;-76
2023/02/18 08:13:50;;;;;;;2.65;1.35;;;;;;;10.79;100.00;99464.34;4915104;28;20493;-76
2023/02/18 08:16:17;;;;;;;2.88;1.35;;;;;;;10.98;100.00;99496.28;4914143;28;20072;-80
2023/02/18 08:18:51;;;;;;;3.50;1.20;;;;;;;11.08;100.00;99491.41;4935297;28;20090;-80
2023/02/18 08:24:37;;;;;;;4.13;1.42;;;;;;;11.30;100.00;99473.31;4928689;28;20040;-78
2023/02/18 08:27:02;;;;;;;3.00;1.35;;;;;;;11.52;100.00;99487.69;4924554;28;20028;-77
2023/02/18 08:29:28;;;;;;;1.88;1.08;;;;;;;11.46;100.00;99477.63;5031734;28;20069;-80
2023/02/18 08:31:56;;;;;;;3.53;1.42;;;;;;;11.50;100.00;99478.94;4984365;28;20024;-78
2023/02/18 08:34:21;;;;;;;2.30;1.30;;;;;;;11.43;100.00;99467.19;4910336;28;20035;-76
2023/02/18 08:36:46;;;;;;;2.33;1.40;;;;;;;11.54;100.00;99471.25;4913149;28;20028;-75
2023/02/18 08:39:12;;;;;;;1.88;1.30;;;;;;;11.66;100.00;99461.59;4916399;28;20501;-75
2023/02/18 08:41:37;;;;;;;2.00;1.30;;;;;;;11.78;100.00;99467.31;4916472;29;20032;-76
2023/02/18 08:44:02;;;;;;;1.73;1.17;;;;;;;12.07;100.00;99459.03;4916287;28;20478;-77
2023/02/18 08:46:28;;;;;;;2.33;1.30;;;;;;;12.25;100.00;99463.97;4931139;29;20036;-79
2023/02/18 08:48:53;;;;;;;2.30;1.48;;;;;;;12.45;100.00;99453.25;4916224;28;20031;-78
2023/02/18 08:51:21;;;;;;;2.85;1.60;;;;;;;12.70;100.00;99467.16;4923682;28;20036;-79
2023/02/18 08:53:48;;;;;;;1.95;1.45;;;;;;;12.84;100.00;99462.66;4924915;28;20028;-77
2023/02/18 08:56:14;;;;;;;2.60;1.55;;;;;;;12.88;100.00;99461.19;4910679;29;20051;-79
2023/02/18 08:58:40;;;;;;;2.15;1.50;;;;;;;13.11;100.00;99449.16;4916882;29;20474;-78
2023/02/18 09:01:08;;;;;;;2.75;1.52;;;;;;;13.25;100.00;99444.59;4920053;28;20024;-79
2023/02/18 09:03:34;;;;;;;2.75;1.50;;;;;;;13.25;100.00;99434.56;4915242;28;20029;-76
2023/02/18 09:06:00;;;;;;;2.25;1.30;;;;;;;13.35;100.00;99464.94;4914014;29;20024;-76
2023/02/18 09:08:26;;;;;;;2.28;1.40;;;;;;;13.29;100.00;99441.31;4911636;29;20024;-79
2023/02/18 09:10:56;;;;;;;2.25;1.55;;;;;;;13.24;100.00;99448.38;4926282;28;20031;-76
2023/02/18 09:13:22;;;;;;;3.33;1.50;;;;;;;13.27;100.00;99431.69;4917970;28;20036;-77
2023/02/18 09:16:06;;;;;;;2.60;1.65;;;;;;;13.42;100.00;99445.13;4937567;28;20497;-81
2023/02/18 09:18:34;;;;;;;2.92;1.30;;;;;;;13.52;100.00;99435.50;4919371;28;20489;-77
2023/02/18 09:20:59;;;;;;;4.40;2.63;;;;;;;13.35;100.00;99443.19;4915701;28;20455;-75
2023/02/18 09:23:26;;;;;;;2.15;1.20;;;;;;;13.59;100.00;99440.94;4912595;29;20032;-75
2023/02/18 09:25:52;;;;;;;2.15;1.30;;;;;;;13.88;100.00;99428.00;4911661;29;20028;-76
2023/02/18 09:28:17;;;;;;;2.65;1.38;;;;;;;13.97;100.00;99424.03;4907413;29;20830;-74
2023/02/18 09:30:43;;;;;;;2.88;1.15;;;;;;;13.75;100.00;99432.41;4909225;29;20032;-76
2023/02/18 09:33:08;;;;;;;1.77;1.20;;;;;;;13.63;100.00;99434.06;4908029;28;20028;-76
2023/02/18 09:35:38;;;;;;;1.55;1.20;;;;;;;13.70;100.00;99421.31;4911045;29;20545;-76
2023/02/18 09:38:03;;;;;;;1.90;1.02;;;;;;;13.72;100.00;99430.06;4908153;28;20036;-76
2023/02/18 09:40:32;;;;;;;5.78;1.48;;;;;;;13.71;100.00;99414.81;4913657;28;20032;-75
2023/02/18 09:42:58;;;;;;;1.15;0.88;;;;;;;13.84;100.00;99413.16;4908023;29;20039;-74
2023/02/18 09:45:24;;;;;;;1.27;0.95;;;;;;;13.81;100.00;99412.50;4911697;29;20383;-74
2023/02/18 09:47:50;;;;;;;2.60;0.93;;;;;;;13.76;100.00;99408.75;4963711;28;20027;-75
2023/02/18 09:50:27;;;;;;;3.72;0.98;;;;;;;13.77;100.00;99421.28;4911362;28;20519;-75
2023/02/18 09:52:53;;;;;;;2.47;0.98;;;;;;;13.84;100.00;99407.72;4912372;28;20410;-74
2023/02/18 09:55:23;;;;;;;1.60;0.95;;;;;;;13.79;100.00;99414.59;4911800;28;20020;-76
2023/02/18 09:57:52;;;;;;;1.95;1.05;;;;;;;13.82;100.00;99427.78;4908694;28;20032;-75
2023/02/18 10:00:20;;;;;;;1.58;0.90;;;;;;;13.78;100.00;99431.97;4912711;29;20028;-76
2023/02/18 10:03:11;;;;;;;1.75;1.05;;;;;;;13.80;100.00;99429.03;4913700;29;20059;-76
2023/02/18 10:05:41;;;;;;;3.38;1.02;;;;;;;13.89;100.00;99440.56;4902868;29;20678;-75
2023/02/18 10:08:23;;;;;;;1.75;0.90;;;;;;;13.93;100.00;99430.91;4907561;28;20035;-75
2023/02/18 10:10:48;;;;;;;2.15;1.10;;;;;;;13.81;100.00;99434.28;4908897;29;20115;-75
2023/02/18 10:13:28;;;;;;;2.05;0.88;;;;;;;13.70;100.00;99464.81;4925609;28;20162;-76
2023/02/18 10:15:53;;;;;;;1.50;0.93;;;;;;;13.49;100.00;99435.94;4917726;28;20039;-75
2023/02/18 10:18:23;;;;;;;2.58;1.13;;;;;;;13.62;100.00;99456.00;4927280;28;20024;-75
2023/02/18 10:20:50;;;;;;;1.73;0.80;;;;;;;13.53;100.00;99447.22;4920235;28;20036;-76
2023/02/18 10:23:18;;;;;;;2.25;0.98;;;;;;;13.51;100.00;99462.88;4911568;29;20131;-75
2023/02/18 10:25:47;;;;;;;2.95;1.25;;;;;;;13.58;100.00;99447.44;4911077;29;20111;-75
2023/02/18 10:28:13;;;;;;;1.48;0.85;;;;;;;13.67;100.00;99437.19;4907940;28;20101;-76
2023/02/18 10:30:45;;;;;;;2.65;0.85;;;;;;;13.56;100.00;99439.47;4904463;28;20115;-76
2023/02/18 10:33:25;;;;;;;1.27;0.60;;;;;;;13.56;100.00;99438.63;4912472;28;20043;-76
2023/02/18 10:36:09;;;;;;;1.15;0.73;;;;;;;13.34;100.00;99459.72;4906872;29;20119;-76
2023/02/18 10:39:00;;;;;;;1.10;0.60;;;;;;;13.48;100.00;99447.81;4910843;28;20063;-77
2023/02/18 10:41:27;;;;;;;0.90;0.70;;;;;;;13.69;100.00;99463.13;4936539;28;20087;-76
2023/02/18 10:43:52;;;;;;;1.55;0.95;;;;;;;13.70;100.00;99439.47;4909538;28;20064;-76
2023/02/18 10:47:05;;;;;;;1.02;0.73;;;;;;;13.53;100.00;99420.88;4915074;28;20063;-76
2023/02/18 10:49:41;;;;;;;1.95;1.00;;;;;;;13.62;100.00;99434.25;4909630;29;20033;-76
2023/02/18 10:52:13;;;;;;;1.52;1.00;;;;;;;13.51;100.00;99419.41;4952835;28;20111;-75
2023/02/18 10:54:50;;;;;;;3.00;0.63;;;;;;;13.53;100.00;99428.19;4893673;28;20177;-76
2023/02/18 10:57:22;;;;;;;1.90;0.95;;;;;;;13.53;100.00;99441.78;4912704;29;20028;-75
2023/02/18 11:00:09;;;;;;;1.05;0.77;;;;;;;13.49;100.00;99419.63;4923619;28;20787;-75
2023/02/18 11:02:35;;;;;;;1.75;1.10;;;;;;;13.67;100.00;99429.84;4907102;29;20714;-75
2023/02/18 11:05:15;;;;;;;1.95;1.05;;;;;;;13.72;100.00;99415.66;4903256;28;20024;-75
2023/02/18 11:07:45;;;;;;;2.60;0.80;;;;;;;13.45;100.00;99406.63;4911698;29;20028;-75
2023/02/18 11:10:18;;;;;;;2.63;1.00;;;;;;;13.56;100.00;99430.47;4911426;28;20039;-76
2023/02/18 11:12:49;;;;;;;2.03;1.15;;;;;;;13.32;100.00;99419.16;4911133;28;20093;-76
2023/02/18 11:15:22;;;;;;;2.20;0.85;;;;;;;13.49;100.00;99419.63;4898288;28;20031;-76
2023/02/18 11:17:50;;;;;;;1.30;0.85;;;;;;;13.50;100.00;99410.41;4909011;28;20028;-75
2023/02/18 11:20:34;;;;;;;2.75;1.00;;;;;;;13.51;100.00;99430.25;4911336;29;20039;-75
2023/02/18 11:23:05;;;;;;;6.47;0.90;;;;;;;13.53;100.00;99409.16;4910216;29;20020;-75
2023/02/18 11:25:38;;;;;;;1.30;0.77;;;;;;;13.47;100.00;99407.28;4911526;29;20115;-76
2023/02/18 11:28:16;;;;;;;3.67;0.95;;;;;;;13.62;100.00;99418.78;4914638;28;20090;-76
2023/02/18 11:30:45;;;;;;;2.30;0.98;;;;;;;13.46;100.00;99414.56;4914804;28;20024;-76
2023/02/18 11:33:34;;;;;;;1.20;0.80;;;;;;;13.50;100.00;99413.13;4913008;28;20036;-76
2023/02/18 11:36:12;;;;;;;1.27;0.70;;;;;;;13.18;100.00;99390.25;4914452;29;20036;-75
2023/02/18 11:38:43;;;;;;;1.55;0.80;;;;;;;13.24;100.00;99402.19;4913613;29;20047;-75